Quick Links (Output Below):   Max & Min Temps   /   Climate Reports   /   Zone Forecasts
River Forecasts   /   Forestry Forecasts   /   Aviation Forecasts   /   Radars   /   Features

Terminal Aerodrome Forecast (Hot Springs)

Pick a Site:
Arkadelphia | El Dorado | Fayetteville | Fort Smith | Harrison | Highfill | Hot Springs | Jonesboro
Little Rock | Monticello | Mountain Home | Pine Bluff | Texarkana
 Forecast 

KHOT 011736Z 0118/0218 29004KT P6SM FEW010 BKN060 OVC090
     FM011900 30010KT P6SM SCT025 BKN060 OVC090
     FM012100 30010G18KT P6SM SCT015 BKN025 BKN050
     FM020100 31010G16KT P6SM SCT025
     FM021200 32007KT P6SM FEW027=


 Latest METARs (Observations) 
How to Decode METARs
17Z KHOT 011653Z AUTO 29004KT 7SM -RA FEW009 BKN065 OVC090 12/11 A2982
         RMK AO2 SLP095 P0006 T01170111
         
16Z KHOT 011553Z AUTO VRB04KT 1 1/2SM RA BR BKN005 BKN020 OVC030 11/11
         A2981 RMK AO2 RAB09E18B35 CIG 002V008 SLP094 P0006
         T01110106
         
15Z KHOT 011453Z AUTO 22004KT 6SM BR OVC006 13/12 A2980 RMK AO2 RAE47
         SLP091 P0003 60012 T01280117 58009
         
14Z KHOT 011353Z AUTO 23005KT 9SM -RA OVC008 12/11 A2982 RMK AO2
         RAE09B30 SLP097 P0000 T01170106
         
13Z KHOT 011253Z AUTO VRB03KT 8SM -RA OVC010 11/10 A2983 RMK AO2 CIG
         006V013 SLP100 P0009 T01060100
         
12Z KHOT 011153Z AUTO 00000KT 6SM -RA BR OVC007 10/09 A2983 RMK AO2
         CIG 006V011 SLP100 P0005 60021 70021 T01000089 10100 20078
         58007
         
11Z KHOT 011053Z AUTO 19003KT 4SM RA BR OVC008 09/08 A2985 RMK AO2 CIG
         006V011 SLP108 P0011 T00890078
         
10Z KHOT 010953Z AUTO 11004KT 10SM -RA OVC016 08/06 A2985 RMK AO2
         PRESFR SLP107 P0000 T00780056
         
09Z KHOT 010853Z AUTO 07004KT 7SM RA OVC019 08/04 A2990 RMK AO2 SLP123
         P0005 60005 T00780044 56030
         
08Z KHOT 010753Z AUTO VRB05KT 10SM -RA OVC021 09/02 A2991 RMK AO2
         RAB20 SLP129 P0000 T00940017
         
***** Today's Observations (Above) *****


Back to Main Page
http://www.srh.noaa.gov/lzk/qfcst.php

USA.gov is the U.S. government's official web portal to all federal, state and local government web resources and services.